Time;durP1;ratioP1;P1;durP2;ratioP2;P2;SDS_P1;SDS_P2;PMS_P1;PMS_P2;Temp;Humidity;BMP_temperature;BMP_pressure;BME280_temperature;BME280_humidity;BME280_pressure;Samples;Min_cycle;Max_cycle;Signal;HPM_P1;HPM_P2
2023/06/30 00:01:26;;;;;;;6.85;4.72;;;;;;;12.77;100.00;93247.22;5069393;28;20097;-73
2023/06/30 00:03:53;;;;;;;6.65;4.72;;;;;;;12.76;100.00;93248.22;5076167;28;20055;-73
2023/06/30 00:06:20;;;;;;;5.47;4.70;;;;;;;12.74;100.00;93244.31;5069836;28;20130;-73
2023/06/30 00:08:48;;;;;;;6.35;4.50;;;;;;;12.72;100.00;93252.25;5069663;28;20425;-73
2023/06/30 00:11:15;;;;;;;5.60;4.55;;;;;;;12.60;100.00;93244.50;5067057;28;20048;-73
2023/06/30 00:13:43;;;;;;;5.15;4.43;;;;;;;12.57;100.00;93247.53;5067449;28;20048;-73
2023/06/30 00:16:10;;;;;;;4.95;4.35;;;;;;;12.43;100.00;93237.41;5069624;28;20060;-72
2023/06/30 00:18:37;;;;;;;4.93;4.07;;;;;;;12.45;100.00;93246.72;5067308;28;20423;-72
2023/06/30 00:21:04;;;;;;;5.15;4.05;;;;;;;12.40;100.00;93243.00;5067310;28;20098;-72
2023/06/30 00:23:30;;;;;;;6.03;5.22;;;;;;;12.45;100.00;93249.28;5071872;28;20517;-72
2023/06/30 00:25:57;;;;;;;6.07;4.80;;;;;;;12.47;100.00;93252.41;5067173;28;20054;-73
2023/06/30 00:28:24;;;;;;;5.18;4.28;;;;;;;12.47;100.00;93242.13;5077263;28;20090;-72
2023/06/30 00:30:52;;;;;;;5.63;4.20;;;;;;;12.42;100.00;93240.97;5076272;28;20563;-72
2023/06/30 00:33:19;;;;;;;5.80;4.30;;;;;;;12.39;100.00;93240.63;5078476;28;20095;-72
2023/06/30 00:35:45;;;;;;;4.93;4.43;;;;;;;12.36;100.00;93238.50;5075516;28;20127;-72
2023/06/30 00:38:12;;;;;;;6.45;4.40;;;;;;;12.26;100.00;93247.53;5075987;28;20037;-72
2023/06/30 00:40:39;;;;;;;5.43;4.57;;;;;;;12.26;100.00;93237.25;5079479;28;20040;-73
2023/06/30 00:43:06;;;;;;;4.70;3.92;;;;;;;12.21;100.00;93239.69;5082798;28;20052;-72
2023/06/30 00:45:34;;;;;;;4.97;4.03;;;;;;;12.19;100.00;93246.84;5076449;28;20048;-72
2023/06/30 00:48:02;;;;;;;6.03;4.47;;;;;;;12.17;100.00;93246.25;5077481;28;20094;-72
2023/06/30 00:50:29;;;;;;;6.28;4.90;;;;;;;12.13;100.00;93235.63;5080043;28;20180;-72
2023/06/30 00:52:56;;;;;;;5.03;4.40;;;;;;;12.09;100.00;93239.63;5081063;28;20043;-72
2023/06/30 00:55:25;;;;;;;6.30;5.43;;;;;;;12.11;100.00;93239.41;5083505;28;20094;-73
2023/06/30 00:57:52;;;;;;;5.97;4.85;;;;;;;12.10;100.00;93241.22;5082645;28;20044;-73
2023/06/30 01:00:19;;;;;;;6.10;4.75;;;;;;;12.13;100.00;93237.44;5077751;28;20048;-73
2023/06/30 01:02:52;;;;;;;5.10;4.15;;;;;;;11.93;100.00;93207.53;5082681;28;20048;-73
2023/06/30 01:05:26;;;;;;;5.85;5.18;;;;;;;12.03;100.00;93218.09;5085342;28;20044;-73
2023/06/30 01:08:01;;;;;;;5.57;4.50;;;;;;;12.14;100.00;93226.88;5077794;28;20048;-73
2023/06/30 01:10:30;;;;;;;5.68;4.35;;;;;;;12.01;100.00;93216.75;5077838;28;20387;-72
2023/06/30 01:12:58;;;;;;;5.28;4.22;;;;;;;12.04;100.00;93224.06;5081801;28;20497;-72
2023/06/30 01:15:25;;;;;;;5.07;4.35;;;;;;;11.98;100.00;93219.75;5080383;28;20449;-72
2023/06/30 01:17:56;;;;;;;5.00;3.85;;;;;;;11.98;100.00;93223.13;5081267;28;20391;-72
2023/06/30 01:20:24;;;;;;;4.32;3.80;;;;;;;11.93;100.00;93225.56;5080462;28;20054;-73
2023/06/30 01:22:55;;;;;;;5.05;4.03;;;;;;;11.87;100.00;93234.16;5078066;28;20040;-73
2023/06/30 01:25:27;;;;;;;5.13;4.38;;;;;;;11.78;100.00;93231.09;5080516;28;20113;-72
2023/06/30 01:27:55;;;;;;;5.65;4.45;;;;;;;11.79;100.00;93226.72;5079611;28;20093;-72
2023/06/30 01:30:23;;;;;;;4.93;4.03;;;;;;;11.78;100.00;93218.22;5077788;28;20830;-72
2023/06/30 01:32:54;;;;;;;5.65;4.78;;;;;;;11.74;100.00;93222.22;5080300;28;20040;-72
2023/06/30 01:35:21;;;;;;;4.97;4.25;;;;;;;11.72;100.00;93219.84;5081331;28;20044;-72
2023/06/30 01:37:49;;;;;;;4.72;4.07;;;;;;;11.75;100.00;93216.06;5081962;28;20101;-72
2023/06/30 01:40:16;;;;;;;5.47;4.78;;;;;;;11.71;100.00;93208.00;5081414;28;20055;-72
2023/06/30 01:42:43;;;;;;;5.25;4.20;;;;;;;11.71;100.00;93209.78;5081628;28;20059;-73
2023/06/30 01:45:12;;;;;;;6.20;4.10;;;;;;;11.49;100.00;93184.50;5079377;28;20047;-72
2023/06/30 01:47:39;;;;;;;5.03;4.18;;;;;;;11.66;100.00;93207.84;5080514;28;20052;-73
2023/06/30 01:50:08;;;;;;;5.55;4.60;;;;;;;11.63;100.00;93206.50;5080966;28;20036;-72
2023/06/30 01:52:35;;;;;;;5.43;4.10;;;;;;;11.60;100.00;93208.72;5079731;28;20603;-73
2023/06/30 01:55:04;;;;;;;5.60;4.45;;;;;;;11.36;100.00;93181.06;5076967;28;20113;-72
2023/06/30 01:57:31;;;;;;;5.53;4.30;;;;;;;11.50;100.00;93206.66;5072296;28;20053;-72
2023/06/30 01:59:58;;;;;;;5.63;4.15;;;;;;;11.44;100.00;93204.94;5069203;28;20044;-72
2023/06/30 02:02:25;;;;;;;5.70;4.30;;;;;;;11.49;100.00;93195.56;5069496;28;20052;-72
2023/06/30 02:04:51;;;;;;;4.93;4.10;;;;;;;11.43;100.00;93199.00;5072146;28;20052;-72
2023/06/30 02:07:18;;;;;;;5.30;4.10;;;;;;;11.43;100.00;93203.38;5069180;28;20094;-72
2023/06/30 02:09:45;;;;;;;6.10;4.50;;;;;;;11.39;100.00;93208.16;5069317;28;20090;-72
2023/06/30 02:12:13;;;;;;;6.18;4.90;;;;;;;11.44;100.00;93202.38;5069795;28;20049;-72
2023/06/30 02:14:40;;;;;;;5.28;4.30;;;;;;;11.43;100.00;93205.97;5069364;28;20099;-73
2023/06/30 02:17:06;;;;;;;5.43;4.40;;;;;;;11.38;100.00;93205.81;5071744;28;20098;-72
2023/06/30 02:19:33;;;;;;;5.28;4.70;;;;;;;11.36;100.00;93206.00;5069233;28;20052;-72
2023/06/30 02:22:00;;;;;;;5.75;4.57;;;;;;;11.33;100.00;93198.72;5079700;28;20044;-73
2023/06/30 02:24:26;;;;;;;6.22;4.75;;;;;;;11.39;100.00;93203.00;5069932;28;20587;-72
2023/06/30 02:26:54;;;;;;;6.07;5.03;;;;;;;11.36;100.00;93204.22;5068492;28;20048;-72
2023/06/30 02:29:22;;;;;;;5.65;4.50;;;;;;;11.35;100.00;93209.59;5087863;28;20043;-73
2023/06/30 02:31:49;;;;;;;5.97;4.40;;;;;;;11.29;100.00;93197.59;5069461;28;20044;-72
2023/06/30 02:34:15;;;;;;;6.22;4.90;;;;;;;11.41;100.00;93208.72;5075137;28;20795;-72
2023/06/30 02:36:42;;;;;;;5.38;4.60;;;;;;;11.39;100.00;93204.81;5086009;28;21242;-73
2023/06/30 02:39:09;;;;;;;5.10;4.60;;;;;;;11.37;100.00;93210.16;5072349;28;20044;-72
2023/06/30 02:41:35;;;;;;;5.80;5.07;;;;;;;11.39;100.00;93210.72;5069001;28;20400;-72
2023/06/30 02:44:02;;;;;;;5.97;4.40;;;;;;;11.40;100.00;93201.22;5068802;28;20052;-72
2023/06/30 02:46:30;;;;;;;5.65;4.25;;;;;;;11.35;100.00;93189.03;5069058;28;20509;-72
2023/06/30 02:48:57;;;;;;;7.70;4.97;;;;;;;11.40;100.00;93196.09;5073245;28;20556;-73
2023/06/30 02:51:23;;;;;;;6.78;4.88;;;;;;;11.36;100.00;93199.06;5078363;28;20044;-72
2023/06/30 02:53:50;;;;;;;5.75;4.70;;;;;;;11.30;100.00;93202.50;5069682;28;20045;-72
2023/06/30 02:56:17;;;;;;;5.72;4.45;;;;;;;11.25;100.00;93204.16;5069151;28;20437;-72
2023/06/30 02:58:44;;;;;;;7.10;5.38;;;;;;;11.28;100.00;93201.13;5068450;28;20084;-76
2023/06/30 03:01:10;;;;;;;6.07;4.43;;;;;;;11.28;100.00;93201.94;5068563;28;20109;-73
2023/06/30 03:03:39;;;;;;;6.03;4.63;;;;;;;11.24;100.00;93200.78;5067683;28;20048;-73
2023/06/30 03:06:06;;;;;;;5.97;4.78;;;;;;;11.16;100.00;93194.13;5069125;28;20056;-73
2023/06/30 03:08:32;;;;;;;7.45;5.45;;;;;;;11.04;100.00;93180.44;5067988;28;20059;-73
2023/06/30 03:10:59;;;;;;;5.78;5.05;;;;;;;11.13;100.00;93201.50;5070204;28;20436;-73
2023/06/30 03:13:26;;;;;;;7.28;5.32;;;;;;;11.12;100.00;93199.94;5068411;28;20106;-73
2023/06/30 03:15:52;;;;;;;6.10;4.95;;;;;;;11.07;100.00;93191.06;5066874;28;20052;-72
2023/06/30 03:18:19;;;;;;;6.10;5.45;;;;;;;11.09;100.00;93190.84;5069205;28;20052;-73
2023/06/30 03:20:48;;;;;;;6.32;4.90;;;;;;;11.13;100.00;93193.78;5067749;28;20074;-73
2023/06/30 03:23:15;;;;;;;8.38;5.32;;;;;;;11.16;100.00;93194.13;5067690;28;20056;-73
2023/06/30 03:25:42;;;;;;;7.88;5.15;;;;;;;11.17;100.00;93198.31;5067416;28;20136;-72
2023/06/30 03:28:08;;;;;;;9.60;6.22;;;;;;;11.16;100.00;93189.00;5067715;28;20445;-72
2023/06/30 03:30:35;;;;;;;7.78;4.90;;;;;;;11.19;100.00;93180.06;5067542;28;20101;-72
2023/06/30 03:33:02;;;;;;;9.52;5.63;;;;;;;11.23;100.00;93183.78;5067831;28;20045;-72
2023/06/30 03:35:29;;;;;;;7.03;4.88;;;;;;;11.27;100.00;93197.00;5067138;28;20091;-72
2023/06/30 03:37:57;;;;;;;8.18;5.20;;;;;;;11.25;100.00;93202.34;5067758;28;20102;-72
2023/06/30 03:40:23;;;;;;;7.43;4.95;;;;;;;11.23;100.00;93194.88;5081042;28;20048;-72
2023/06/30 03:42:50;;;;;;;6.07;5.07;;;;;;;11.26;100.00;93196.25;5070582;28;20044;-72
2023/06/30 03:45:17;;;;;;;5.75;4.38;;;;;;;11.27;100.00;93199.56;5068155;28;20048;-73
2023/06/30 03:47:44;;;;;;;6.82;5.28;;;;;;;11.27;100.00;93200.38;5072945;28;20044;-72
2023/06/30 03:50:11;;;;;;;8.63;5.10;;;;;;;11.28;100.00;93204.50;5068316;28;20080;-72
2023/06/30 03:52:37;;;;;;;6.00;4.47;;;;;;;11.36;100.00;93203.44;5080091;28;20550;-72
2023/06/30 03:55:06;;;;;;;9.73;4.53;;;;;;;11.42;100.00;93199.22;5065752;28;20052;-72
2023/06/30 03:57:33;;;;;;;9.18;5.25;;;;;;;11.43;100.00;93205.97;5077268;28;20053;-72
2023/06/30 04:00:00;;;;;;;6.63;5.05;;;;;;;11.45;100.00;93206.50;5068876;28;20052;-72
2023/06/30 04:02:26;;;;;;;6.20;4.78;;;;;;;11.47;100.00;93205.31;5066765;28;20102;-71
2023/06/30 04:04:53;;;;;;;6.88;4.88;;;;;;;11.55;100.00;93208.56;5070377;28;20106;-72
2023/06/30 04:07:20;;;;;;;6.22;5.40;;;;;;;11.56;100.00;93208.38;5067278;28;20497;-72
2023/06/30 04:09:47;;;;;;;7.22;5.75;;;;;;;11.62;100.00;93211.88;5067028;28;20941;-72
2023/06/30 04:12:15;;;;;;;6.90;5.78;;;;;;;11.67;100.00;93212.00;5069743;28;20048;-72
2023/06/30 04:14:41;;;;;;;6.75;5.68;;;;;;;11.74;100.00;93199.84;5085184;28;20048;-72
2023/06/30 04:17:08;;;;;;;9.15;6.50;;;;;;;11.79;100.00;93194.03;5075870;28;20106;-72
2023/06/30 04:19:35;;;;;;;14.82;7.15;;;;;;;11.84;100.00;93198.53;5067340;28;20072;-72
2023/06/30 04:22:02;;;;;;;7.88;6.00;;;;;;;11.87;100.00;93203.25;5067495;28;20048;-72
2023/06/30 04:24:28;;;;;;;9.15;5.55;;;;;;;12.00;100.00;93192.00;5067349;28;20044;-73
2023/06/30 04:26:55;;;;;;;7.38;5.70;;;;;;;12.08;100.00;93196.09;5066713;28;20470;-72
2023/06/30 04:29:23;;;;;;;8.88;6.18;;;;;;;12.06;100.00;93186.00;5069944;28;20036;-72
2023/06/30 04:31:50;;;;;;;10.05;6.60;;;;;;;12.07;100.00;93187.56;5075928;28;20056;-72
2023/06/30 04:34:17;;;;;;;6.65;5.70;;;;;;;12.22;100.00;93200.03;5070864;28;20127;-72
2023/06/30 04:36:44;;;;;;;7.20;5.43;;;;;;;12.33;100.00;93200.31;5066901;28;20561;-72
2023/06/30 04:39:10;;;;;;;8.32;5.80;;;;;;;12.33;100.00;93184.84;5067220;28;20052;-72
2023/06/30 04:41:37;;;;;;;8.48;6.15;;;;;;;12.41;100.00;93194.84;5076926;28;20118;-72
2023/06/30 04:44:04;;;;;;;7.32;5.85;;;;;;;12.49;100.00;93183.44;5080597;28;20044;-72
2023/06/30 04:46:32;;;;;;;7.35;5.75;;;;;;;12.47;100.00;93177.72;5072798;28;20171;-73
2023/06/30 04:49:00;;;;;;;6.72;5.68;;;;;;;12.49;100.00;93167.97;5066162;28;20498;-72
2023/06/30 04:51:27;;;;;;;8.48;6.18;;;;;;;12.49;100.00;93158.44;5067054;28;20525;-72
2023/06/30 04:53:54;;;;;;;8.05;6.55;;;;;;;12.75;100.00;93187.38;5067018;28;20041;-72
2023/06/30 04:56:21;;;;;;;8.57;6.55;;;;;;;12.85;100.00;93189.41;5076971;28;20048;-72
2023/06/30 04:58:49;;;;;;;8.30;6.22;;;;;;;12.92;100.00;93191.88;5069480;28;20094;-72
2023/06/30 05:01:16;;;;;;;9.15;7.18;;;;;;;12.83;100.00;93158.69;5068296;28;20102;-72
2023/06/30 05:03:44;;;;;;;8.65;7.22;;;;;;;13.08;100.00;93188.63;5070456;28;20591;-72
2023/06/30 05:06:11;;;;;;;14.35;10.13;;;;;;;13.08;100.00;93192.97;5080454;28;20060;-72
2023/06/30 05:08:38;;;;;;;12.60;10.80;;;;;;;13.15;100.00;93196.22;5072640;28;20512;-73
2023/06/30 05:11:04;;;;;;;11.27;8.43;;;;;;;13.16;100.00;93197.81;5066700;28;20097;-72
2023/06/30 05:13:32;;;;;;;15.18;8.10;;;;;;;13.14;100.00;93188.72;5068227;28;20079;-72
2023/06/30 05:15:59;;;;;;;10.32;7.25;;;;;;;13.18;100.00;93190.63;5069583;28;20074;-73
2023/06/30 05:18:25;;;;;;;9.77;7.15;;;;;;;13.19;100.00;93191.41;5073461;28;20052;-72
2023/06/30 05:20:55;;;;;;;9.07;7.07;;;;;;;13.25;100.00;93194.88;5076206;28;20047;-72
2023/06/30 05:23:23;;;;;;;9.45;6.72;;;;;;;13.30;100.00;93200.94;5072893;28;20045;-73
2023/06/30 05:25:50;;;;;;;11.23;6.53;;;;;;;13.31;100.00;93199.91;5073645;28;20452;-73
2023/06/30 05:28:17;;;;;;;8.82;6.70;;;;;;;13.43;100.00;93210.22;5077457;28;20070;-72
2023/06/30 05:30:43;;;;;;;10.55;6.65;;;;;;;13.48;100.00;93210.34;5076895;28;20522;-73
2023/06/30 05:33:10;;;;;;;11.55;7.25;;;;;;;13.57;100.00;93204.84;5074093;28;20052;-73
2023/06/30 05:35:37;;;;;;;9.45;6.82;;;;;;;13.79;100.00;93207.56;5073795;28;20130;-73
2023/06/30 05:38:05;;;;;;;9.07;7.55;;;;;;;13.94;100.00;93207.09;5072559;28;20546;-73
2023/06/30 05:40:32;;;;;;;10.63;7.05;;;;;;;14.19;100.00;93208.56;5071253;28;20048;-73
2023/06/30 05:42:58;;;;;;;8.60;5.93;;;;;;;14.43;100.00;93213.59;5071664;28;20090;-73
2023/06/30 05:45:26;;;;;;;9.57;6.10;;;;;;;14.56;100.00;93218.50;5074070;28;20048;-73
2023/06/30 05:47:52;;;;;;;10.48;6.97;;;;;;;14.73;100.00;93217.72;5071088;28;20457;-73
2023/06/30 05:50:21;;;;;;;9.50;6.55;;;;;;;15.00;100.00;93216.31;5073536;28;20045;-73
2023/06/30 05:52:48;;;;;;;9.95;6.88;;;;;;;15.11;100.00;93218.03;5087315;28;20076;-73
2023/06/30 05:55:17;;;;;;;7.75;6.35;;;;;;;15.13;100.00;93221.16;5070787;28;20099;-74
2023/06/30 05:57:44;;;;;;;14.45;7.00;;;;;;;15.32;100.00;93215.72;5077887;28;20073;-73
2023/06/30 06:00:11;;;;;;;11.98;6.82;;;;;;;15.61;100.00;93211.16;5071185;28;20048;-74
2023/06/30 06:02:38;;;;;;;10.93;6.30;;;;;;;16.00;100.00;93222.50;5070450;28;20053;-73
2023/06/30 06:05:05;;;;;;;11.15;5.93;;;;;;;16.27;100.00;93221.75;5073383;28;20578;-73
2023/06/30 06:07:32;;;;;;;12.18;6.22;;;;;;;16.37;100.00;93216.66;5070997;28;20297;-73
2023/06/30 06:09:59;;;;;;;10.77;5.82;;;;;;;16.64;100.00;93213.25;5073647;28;20586;-74
2023/06/30 06:12:27;;;;;;;12.15;5.82;;;;;;;17.11;100.00;93218.81;5076746;28;20119;-73
2023/06/30 06:14:54;;;;;;;9.43;5.93;;;;;;;17.48;100.00;93219.78;5070726;28;20055;-73
2023/06/30 06:17:20;;;;;;;8.73;5.53;;;;;;;17.90;97.69;93224.13;5071343;28;20115;-74
2023/06/30 06:19:47;;;;;;;11.57;6.10;;;;;;;18.05;94.64;93227.03;5074632;28;20565;-74
2023/06/30 06:22:14;;;;;;;10.02;6.57;;;;;;;18.27;96.02;93219.06;5076873;28;20052;-74
2023/06/30 06:24:40;;;;;;;9.23;5.30;;;;;;;18.73;90.45;93222.75;5069771;28;21394;-74
2023/06/30 06:27:07;;;;;;;6.47;5.40;;;;;;;19.10;89.24;93208.69;5074592;28;20479;-74
2023/06/30 06:29:35;;;;;;;10.25;5.50;;;;;;;19.50;86.74;93216.69;5070470;28;20063;-74
2023/06/30 06:32:02;;;;;;;10.15;5.93;;;;;;;19.46;85.46;93219.06;5071768;28;20052;-74
2023/06/30 06:34:29;;;;;;;12.38;4.95;;;;;;;19.83;83.70;93219.72;5073308;28;20501;-74
2023/06/30 06:36:56;;;;;;;8.25;4.90;;;;;;;20.23;83.96;93217.19;5069826;28;20048;-74
2023/06/30 06:39:22;;;;;;;8.00;5.30;;;;;;;19.65;81.47;93221.06;5073333;28;20109;-74
2023/06/30 06:41:49;;;;;;;8.20;5.70;;;;;;;19.70;83.82;93215.84;5069778;28;20055;-74
2023/06/30 06:44:16;;;;;;;7.00;5.28;;;;;;;19.98;82.23;93216.28;5069671;28;20056;-74
2023/06/30 06:46:44;;;;;;;8.02;4.60;;;;;;;20.40;81.93;93218.66;5070447;28;20406;-74
2023/06/30 06:49:11;;;;;;;9.63;4.13;;;;;;;20.90;78.41;93220.41;5069212;28;20584;-74
2023/06/30 06:51:37;;;;;;;6.82;4.65;;;;;;;21.11;76.93;93209.81;5068055;28;20095;-74
2023/06/30 06:54:04;;;;;;;5.63;4.30;;;;;;;20.62;75.48;93214.88;5069994;28;20154;-74
2023/06/30 06:56:31;;;;;;;5.50;4.32;;;;;;;20.99;76.09;93197.09;5073439;28;20052;-74
2023/06/30 06:58:58;;;;;;;7.78;4.13;;;;;;;21.58;75.77;93210.88;5073161;28;20427;-74
2023/06/30 07:01:24;;;;;;;8.00;5.30;;;;;;;21.89;73.19;93204.56;5069137;28;20048;-74
2023/06/30 07:03:52;;;;;;;8.63;4.32;;;;;;;21.93;74.13;93207.41;5073073;28;20051;-74
2023/06/30 07:06:21;;;;;;;7.55;4.60;;;;;;;21.06;74.34;93210.66;5074800;28;20056;-74
2023/06/30 07:08:48;;;;;;;6.60;4.28;;;;;;;20.70;74.88;93215.06;5079327;28;20555;-74
2023/06/30 07:11:15;;;;;;;6.47;4.28;;;;;;;21.19;74.35;93217.03;5067933;28;20045;-74
2023/06/30 07:13:42;;;;;;;7.15;4.60;;;;;;;21.80;75.17;93206.25;5067972;28;20623;-74
2023/06/30 07:16:08;;;;;;;5.63;4.35;;;;;;;22.06;70.74;93201.47;5068355;28;20040;-74
2023/06/30 07:18:35;;;;;;;7.35;4.88;;;;;;;21.86;73.58;93192.81;5069224;28;20096;-74
2023/06/30 07:21:03;;;;;;;7.63;4.47;;;;;;;22.24;72.61;93202.56;5080246;28;20040;-74
2023/06/30 07:23:30;;;;;;;10.18;3.80;;;;;;;22.50;71.33;93198.78;5085885;28;20040;-74
2023/06/30 07:25:57;;;;;;;8.02;5.20;;;;;;;22.62;71.15;93199.16;5077609;28;20048;-74
2023/06/30 07:28:23;;;;;;;8.77;4.15;;;;;;;22.80;66.05;93200.19;5068135;28;20397;-74
2023/06/30 07:30:50;;;;;;;6.30;3.97;;;;;;;23.06;65.65;93180.66;5067902;28;20052;-74
2023/06/30 07:33:18;;;;;;;8.90;4.93;;;;;;;22.78;64.40;93194.44;5067251;28;20055;-74
2023/06/30 07:35:45;;;;;;;10.65;4.20;;;;;;;23.07;65.49;93192.69;5067318;28;20166;-74
2023/06/30 07:38:13;;;;;;;10.02;4.10;;;;;;;23.01;65.31;93191.97;5068167;28;21274;-74
2023/06/30 07:40:40;;;;;;;10.45;4.75;;;;;;;22.78;65.35;93193.69;5067458;28;20245;-74
2023/06/30 07:43:06;;;;;;;13.55;4.57;;;;;;;22.46;67.92;93189.94;5070340;28;20448;-74
2023/06/30 07:45:33;;;;;;;12.32;5.07;;;;;;;22.76;67.19;93187.94;5067614;28;20110;-74
2023/06/30 07:48:00;;;;;;;11.45;4.07;;;;;;;23.25;68.37;93182.41;5067453;28;20045;-74
2023/06/30 07:50:26;;;;;;;10.05;3.92;;;;;;;23.82;63.24;93197.88;5073761;28;20395;-74
2023/06/30 07:52:53;;;;;;;11.85;5.00;;;;;;;23.44;61.01;93190.22;5066614;28;20041;-74
2023/06/30 07:55:22;;;;;;;11.50;5.18;;;;;;;23.50;65.68;93191.69;5069154;28;20425;-75
2023/06/30 07:57:49;;;;;;;11.43;5.18;;;;;;;23.96;64.23;93189.22;5067743;28;20431;-74
2023/06/30 08:00:18;;;;;;;8.27;4.10;;;;;;;24.49;64.49;93193.09;5069426;28;20345;-74
2023/06/30 08:02:45;;;;;;;13.07;4.63;;;;;;;24.72;62.33;93195.75;5067895;28;20139;-74
2023/06/30 08:05:12;;;;;;;8.90;3.97;;;;;;;24.93;61.66;93201.31;5078569;28;20113;-74
2023/06/30 08:07:38;;;;;;;7.53;4.07;;;;;;;24.01;60.57;93181.25;5067262;28;20569;-74
2023/06/30 08:10:06;;;;;;;10.00;4.60;;;;;;;24.61;62.70;93191.78;5067221;28;20125;-74
2023/06/30 08:12:34;;;;;;;8.35;4.20;;;;;;;24.60;57.65;93179.72;5065998;28;20098;-74
2023/06/30 08:15:01;;;;;;;7.57;4.35;;;;;;;24.78;53.56;93191.91;5069300;28;20147;-74
2023/06/30 08:17:27;;;;;;;12.90;4.85;;;;;;;25.31;57.50;93188.78;5070608;28;20044;-74
2023/06/30 08:19:54;;;;;;;9.20;4.22;;;;;;;25.66;59.14;93167.13;5085446;28;20044;-75
2023/06/30 08:22:21;;;;;;;12.35;5.18;;;;;;;26.12;56.78;93175.59;5086018;28;20464;-75
2023/06/30 08:24:48;;;;;;;11.25;4.45;;;;;;;26.36;56.22;93172.53;5077589;28;20451;-75
2023/06/30 08:27:16;;;;;;;8.35;4.43;;;;;;;26.55;52.43;93159.03;5067112;28;20121;-74
2023/06/30 08:29:44;;;;;;;4.72;2.67;;;;;;;26.83;49.97;93162.41;5067216;28;20555;-74
2023/06/30 08:32:11;;;;;;;5.75;2.53;;;;;;;27.10;51.19;93157.84;5067510;28;20055;-75
2023/06/30 08:34:38;;;;;;;3.97;2.42;;;;;;;27.36;48.38;93168.31;5068965;28;20048;-75
2023/06/30 08:37:05;;;;;;;7.15;2.53;;;;;;;27.54;46.92;93165.59;5067112;28;20502;-74
2023/06/30 08:39:32;;;;;;;4.15;2.58;;;;;;;27.67;47.23;93156.72;5069051;28;20049;-75
2023/06/30 08:42:00;;;;;;;4.93;2.92;;;;;;;26.46;44.32;93165.38;5066930;28;20048;-74
2023/06/30 08:44:27;;;;;;;3.75;2.45;;;;;;;26.52;46.80;93161.53;5067155;28;20041;-74
2023/06/30 08:46:57;;;;;;;6.80;2.83;;;;;;;27.16;50.88;93149.47;5067029;28;20102;-74
2023/06/30 08:49:25;;;;;;;4.57;2.85;;;;;;;27.50;49.66;93149.66;5070606;28;20510;-74
2023/06/30 08:51:56;;;;;;;4.15;2.65;;;;;;;27.71;49.50;93149.72;5085619;28;20102;-74
2023/06/30 08:54:23;;;;;;;6.07;3.05;;;;;;;28.17;49.49;93143.06;5070240;28;20520;-74
2023/06/30 08:56:50;;;;;;;4.95;2.78;;;;;;;28.33;49.77;93146.66;5068404;28;20048;-74
2023/06/30 08:59:16;;;;;;;6.13;3.70;;;;;;;28.54;50.98;93146.66;5066875;28;20130;-75
2023/06/30 09:01:44;;;;;;;6.85;4.30;;;;;;;28.48;50.11;93147.16;5066931;28;20098;-75
2023/06/30 09:04:13;;;;;;;5.18;3.10;;;;;;;28.08;51.70;93146.53;5080281;28;20043;-75
2023/06/30 09:06:49;;;;;;;4.57;3.08;;;;;;;28.38;52.21;93141.19;5073904;28;20064;-75
2023/06/30 09:09:24;;;;;;;8.20;3.55;;;;;;;28.61;51.63;93142.69;5071272;28;20495;-75
2023/06/30 09:11:51;;;;;;;4.55;2.80;;;;;;;28.68;51.15;93149.00;5079711;28;20048;-75
2023/06/30 09:14:20;;;;;;;6.97;3.88;;;;;;;28.73;51.00;93152.56;5079915;28;20052;-75
2023/06/30 09:16:46;;;;;;;3.97;3.00;;;;;;;28.62;52.14;93145.03;5076348;28;20530;-75
2023/06/30 09:19:16;;;;;;;6.40;3.20;;;;;;;28.63;51.32;93135.22;5070153;28;20078;-75
2023/06/30 09:21:43;;;;;;;4.63;3.15;;;;;;;28.92;50.88;93147.53;5072192;28;20060;-75
2023/06/30 09:24:10;;;;;;;7.07;3.72;;;;;;;29.13;50.52;93152.00;5071439;28;20110;-75
2023/06/30 09:26:37;;;;;;;10.32;3.80;;;;;;;28.94;50.62;93142.69;5073844;28;20057;-75
2023/06/30 09:29:09;;;;;;;3.92;2.80;;;;;;;28.96;50.25;93155.59;5069866;28;20468;-75
2023/06/30 09:31:35;;;;;;;6.90;2.90;;;;;;;28.84;49.99;93150.25;5070658;28;20040;-75
2023/06/30 09:34:10;;;;;;;3.70;2.63;;;;;;;28.87;50.53;93153.03;5070826;28;20052;-75
2023/06/30 09:36:38;;;;;;;3.42;2.40;;;;;;;28.86;49.68;93150.69;5074804;28;20052;-75
2023/06/30 09:39:08;;;;;;;8.77;2.75;;;;;;;28.54;51.07;93130.78;5080559;28;20485;-75
2023/06/30 09:41:35;;;;;;;5.55;2.90;;;;;;;28.71;51.11;93138.88;5078366;28;20044;-75
2023/06/30 09:44:04;;;;;;;3.83;2.60;;;;;;;28.87;50.60;93134.53;5071553;28;20051;-75
2023/06/30 09:46:30;;;;;;;3.35;1.80;;;;;;;29.05;48.80;93140.41;5069906;28;20121;-75
2023/06/30 09:48:57;;;;;;;3.10;2.00;;;;;;;29.18;48.59;93122.69;5070650;28;20044;-75
2023/06/30 09:51:24;;;;;;;2.58;1.95;;;;;;;29.13;44.42;93132.69;5073248;28;20076;-75
2023/06/30 09:53:53;;;;;;;2.30;1.75;;;;;;;28.97;44.72;93129.94;5070108;28;20048;-75
2023/06/30 09:56:21;;;;;;;3.25;2.40;;;;;;;29.37;47.80;93124.00;5073696;28;20051;-75
2023/06/30 09:58:48;;;;;;;3.10;1.50;;;;;;;29.60;43.96;93134.97;5088317;28;20054;-75
2023/06/30 10:01:19;;;;;;;3.78;3.35;;;;;;;29.94;45.31;93126.84;5077042;28;20081;-75
2023/06/30 10:03:49;;;;;;;3.67;2.40;;;;;;;30.17;43.64;93123.72;5077725;28;20671;-76
2023/06/30 10:06:18;;;;;;;3.25;1.92;;;;;;;30.29;44.16;93116.84;5069938;28;20153;-75
2023/06/30 10:08:46;;;;;;;3.53;1.75;;;;;;;30.06;44.25;93118.09;5069461;28;20057;-75
2023/06/30 10:11:14;;;;;;;4.88;1.50;;;;;;;29.71;42.01;93118.63;5069832;28;20696;-76
2023/06/30 10:13:43;;;;;;;2.53;1.45;;;;;;;30.08;44.00;93115.13;5070590;28;20044;-76
2023/06/30 10:16:10;;;;;;;1.92;1.38;;;;;;;30.09;40.81;93111.38;5070870;28;20084;-76
2023/06/30 10:18:42;;;;;;;3.83;1.20;;;;;;;30.00;41.90;93098.25;5069244;28;20481;-76
2023/06/30 10:21:09;;;;;;;2.13;1.10;;;;;;;30.25;39.89;93096.34;5068681;28;20098;-76
2023/06/30 10:23:38;;;;;;;2.38;1.38;;;;;;;30.36;40.07;93095.84;5068913;28;20094;-76
2023/06/30 10:26:07;;;;;;;5.00;1.83;;;;;;;30.36;39.15;93087.91;5071801;28;20056;-76
2023/06/30 10:28:36;;;;;;;4.45;1.70;;;;;;;30.52;39.39;93093.22;5068656;28;20049;-76
2023/06/30 10:31:03;;;;;;;2.20;1.02;;;;;;;30.55;37.49;93092.56;5071332;28;20124;-76
2023/06/30 10:33:30;;;;;;;1.70;1.08;;;;;;;30.63;39.51;93081.00;5070583;28;20048;-75
2023/06/30 10:35:58;;;;;;;2.03;1.02;;;;;;;30.86;39.23;93085.78;5068516;28;20396;-76
2023/06/30 10:38:26;;;;;;;3.00;1.45;;;;;;;30.94;39.15;93073.47;5068827;28;20041;-75
2023/06/30 10:41:12;;;;;;;2.83;1.55;;;;;;;31.11;38.21;93067.03;5072872;28;20048;-76
2023/06/30 10:44:08;;;;;;;2.22;1.10;;;;;;;31.25;38.85;93068.47;5068919;28;20044;-76
2023/06/30 10:46:45;;;;;;;3.50;1.67;;;;;;;31.06;38.49;93064.66;5068967;28;20094;-75
2023/06/30 10:49:26;;;;;;;2.75;1.20;;;;;;;31.22;39.19;93058.53;5068514;28;20385;-76
2023/06/30 10:51:56;;;;;;;1.80;0.98;;;;;;;31.10;37.22;93051.47;5073006;28;20097;-76
2023/06/30 10:54:24;;;;;;;3.50;1.00;;;;;;;31.43;37.54;93060.94;5071909;28;20044;-76
2023/06/30 10:56:52;;;;;;;2.33;1.33;;;;;;;31.50;37.01;93074.38;5069669;28;20127;-76
2023/06/30 10:59:22;;;;;;;2.42;1.02;;;;;;;31.33;37.17;93067.56;5071058;28;20052;-76
2023/06/30 11:02:22;;;;;;;1.77;1.20;;;;;;;31.39;34.88;93062.75;5068087;28;20131;-76
2023/06/30 11:04:51;;;;;;;1.58;0.98;;;;;;;31.15;34.40;93061.81;5073153;28;20058;-77
2023/06/30 11:07:18;;;;;;;6.45;2.35;;;;;;;31.32;34.99;93058.03;5072356;28;20056;-76
2023/06/30 11:09:59;;;;;;;3.63;1.55;;;;;;;31.40;33.45;93062.41;5068326;28;20052;-76
2023/06/30 11:12:27;;;;;;;1.85;0.82;;;;;;;31.50;32.74;93057.66;5084008;28;20092;-76
2023/06/30 11:14:55;;;;;;;1.90;1.00;;;;;;;31.63;34.86;93053.78;5086800;28;20062;-76
2023/06/30 11:17:24;;;;;;;2.00;1.48;;;;;;;31.70;32.75;93050.50;5069759;28;20139;-76
2023/06/30 11:20:12;;;;;;;1.52;0.80;;;;;;;31.41;30.24;93042.72;5086480;28;20391;-77
2023/06/30 11:22:39;;;;;;;1.80;1.20;;;;;;;31.23;33.23;93038.88;5083119;28;20052;-77
2023/06/30 11:25:10;;;;;;;1.85;1.42;;;;;;;31.43;32.83;93032.50;5081819;28;20032;-76
2023/06/30 11:27:38;;;;;;;3.08;1.20;;;;;;;31.21;34.68;93033.91;5069854;28;20160;-77
2023/06/30 11:30:06;;;;;;;2.30;1.05;;;;;;;31.26;32.93;93025.69;5076676;28;20440;-77